Spriggs Payne Airport

Jump to: basic info | weather | frequencies | runways | comments

Related pages: nearby airports | nearby navaids | notams | map

Basic information (top)

Codes: MLW GLMR
Location: lon 6.289060, lat -10.758700, elev 25 ft / 8 m msl
Status: medium_airport
Scheduled airline service: yes
Links: Wikipedia Mobile

Weather (top)

Current conditions for Roberts International Airport 24nm (44km) E (rec'd 2014/04/19 19:30Z):

GLRB 191930Z 00000KT 9999 FEW014 FEW024 CB SCT100 BKN240 26/23 Q1011 RMK CB-SE

Airport forecast for Roberts International Airport 24nm (44km) E (rec'd 2014/04/19 18:51Z):

TAF TAF GLRB 191600Z 1918/2024 24008KT 9999 BKN016 FEW025CB 
      BECMG 1920/1922 00000KT 9999 
      TEMPO 1923/2003 VRB03KT 9000 SCT013 
      BECMG 2004/2006 07009KT 7000 RA/TSRA

Frequencies (top)

Verify before use: may be inaccurate or out of date.

APP: 124.5 MHz (ROBERTS APP)
TWR: 118.7 MHz (SPRIGGS TWR)

Runways (top)

05/23: 6,000 x 100 ft (1,829 x 30 m) — paved — lighted — threshold 05 displaced 200 ft (61 m) — threshold 23 displaced 200 ft (61 m)

Latest comments (top)

No comments yet for Spriggs Payne Airport

More... (top)

See also NOTAMs and nearby airports and navaids, or visit the Spriggs Payne Airport page at the main OurAirports website..